Time;durP1;ratioP1;P1;durP2;ratioP2;P2;SDS_P1;SDS_P2;PMS_P1;PMS_P2;Temp;Humidity;BMP_temperature;BMP_pressure;BME280_temperature;BME280_humidity;BME280_pressure;Samples;Min_cycle;Max_cycle;Signal;HPM_P1;HPM_P2
2022/04/15 00:01:49;;;;;;;28.75;22.00;;;;;;;6.27;100.00;162205.75;5029348;28;20512;-57
2022/04/15 00:04:15;;;;;;;37.85;19.98;;;;;;;6.16;100.00;162177.50;5030533;28;20047;-57
2022/04/15 00:06:40;;;;;;;27.63;18.20;;;;;;;6.09;100.00;162157.28;5030228;28;20048;-56
2022/04/15 00:09:06;;;;;;;23.33;20.55;;;;;;;6.02;100.00;162141.13;5031235;28;20025;-58
2022/04/15 00:11:32;;;;;;;18.92;16.38;;;;;;;5.91;100.00;162111.50;5029086;28;20408;-58
2022/04/15 00:13:58;;;;;;;22.17;17.38;;;;;;;5.80;100.00;162083.25;5031330;28;20497;-58
2022/04/15 00:16:24;;;;;;;17.95;15.13;;;;;;;5.69;100.00;162055.00;5029532;28;20030;-58
2022/04/15 00:18:49;;;;;;;20.88;17.08;;;;;;;5.60;100.00;162030.75;5031121;28;20025;-58
2022/04/15 00:21:14;;;;;;;14.10;10.85;;;;;;;5.56;100.00;162019.97;5029286;28;20440;-58
2022/04/15 00:23:40;;;;;;;9.82;8.85;;;;;;;5.46;100.00;161993.09;5031016;28;20017;-58
2022/04/15 00:26:06;;;;;;;15.23;11.88;;;;;;;5.38;100.00;161972.88;5029712;28;20044;-57
2022/04/15 00:28:31;;;;;;;18.30;12.75;;;;;;;5.33;100.00;161960.78;5030854;28;20095;-58
2022/04/15 00:30:57;;;;;;;18.42;13.88;;;;;;;5.32;100.00;161956.75;5028415;28;20030;-58
2022/04/15 00:33:23;;;;;;;21.27;14.77;;;;;;;5.28;100.00;161947.34;5030319;28;20381;-58
2022/04/15 00:35:48;;;;;;;18.75;14.80;;;;;;;5.27;100.00;161944.66;5029767;28;20034;-59
2022/04/15 00:38:13;;;;;;;21.08;18.55;;;;;;;5.28;100.00;161947.34;5031289;28;20022;-58
2022/04/15 00:40:39;;;;;;;18.05;12.48;;;;;;;5.24;100.00;161937.91;5030182;28;20036;-58
2022/04/15 00:43:04;;;;;;;16.33;12.57;;;;;;;5.11;100.00;161902.97;5029595;28;20053;-58
2022/04/15 00:45:30;;;;;;;21.48;12.13;;;;;;;4.99;100.00;161872.03;5030276;28;20025;-58
2022/04/15 00:47:56;;;;;;;16.25;14.45;;;;;;;4.92;100.00;161854.53;5029336;28;20049;-58
2022/04/15 00:50:28;;;;;;;31.90;24.05;;;;;;;5.11;100.00;161902.97;5031560;28;20555;-58
2022/04/15 00:52:55;;;;;;;31.05;19.70;;;;;;;5.18;100.00;161920.41;5033546;28;20049;-58
2022/04/15 00:55:22;;;;;;;40.13;29.48;;;;;;;5.64;100.00;162041.50;5034283;28;20056;-58
2022/04/15 00:57:50;;;;;;;37.65;29.63;;;;;;;5.93;100.00;162116.84;5033319;28;20052;-58
2022/04/15 01:00:17;;;;;;;46.45;28.58;;;;;;;6.03;100.00;162143.84;5034337;28;20432;-58
2022/04/15 01:02:44;;;;;;;42.67;29.75;;;;;;;6.03;100.00;162143.84;5033293;28;20037;-58
2022/04/15 01:05:11;;;;;;;37.63;27.95;;;;;;;6.07;100.00;162153.25;5034903;28;20053;-58
2022/04/15 01:07:38;;;;;;;34.05;25.83;;;;;;;6.08;100.00;162155.94;5033059;28;20042;-58
2022/04/15 01:10:06;;;;;;;40.30;26.58;;;;;;;6.07;100.00;162151.94;5034367;28;20041;-62
2022/04/15 01:12:35;;;;;;;44.25;26.20;;;;;;;6.02;100.00;162139.81;5032627;28;20046;-58
2022/04/15 01:15:04;;;;;;;36.47;28.40;;;;;;;6.00;100.00;162135.72;5034637;28;20021;-58
2022/04/15 01:17:30;;;;;;;34.35;27.58;;;;;;;5.99;100.00;162131.72;5032598;28;20041;-58
2022/04/15 01:19:55;;;;;;;35.67;25.25;;;;;;;5.96;100.00;162124.94;5034249;28;20033;-59
2022/04/15 01:22:24;;;;;;;34.53;25.55;;;;;;;6.00;100.00;162135.72;5032645;28;20068;-58
2022/04/15 01:24:50;;;;;;;;;;;;;;;5.94;100.00;162119.53;5034951;28;20021;-58
2022/04/15 01:27:32;;;;;;;37.25;26.98;;;;;;;5.93;100.00;162116.84;5032819;28;19940;-58
2022/04/15 01:29:57;;;;;;;33.97;26.65;;;;;;;5.88;100.00;162103.41;5020778;28;20129;-58
2022/04/15 01:32:22;;;;;;;40.22;29.23;;;;;;;6.02;100.00;162141.13;5032402;28;20045;-58
2022/04/15 01:34:47;;;;;;;32.42;28.83;;;;;;;6.10;100.00;162159.97;5034177;28;20033;-58
2022/04/15 01:37:15;;;;;;;39.20;27.67;;;;;;;6.19;100.00;162184.22;5032882;28;20528;-58
2022/04/15 01:39:41;;;;;;;42.38;29.52;;;;;;;6.24;100.00;162197.66;5033423;28;20059;-57
2022/04/15 01:42:10;;;;;;;41.38;27.83;;;;;;;6.27;100.00;162205.75;5032586;28;20053;-58
2022/04/15 01:44:36;;;;;;;43.42;30.55;;;;;;;6.32;100.00;162219.19;5033557;28;20036;-57
2022/04/15 01:47:01;;;;;;;38.53;25.67;;;;;;;6.32;100.00;162219.19;5032287;28;20045;-57
2022/04/15 01:49:27;;;;;;;34.30;26.95;;;;;;;6.32;100.00;162219.19;5033182;28;20029;-58
2022/04/15 01:51:52;;;;;;;43.15;28.15;;;;;;;6.30;100.00;162213.78;5032559;28;20058;-59
2022/04/15 01:54:17;;;;;;;39.13;23.38;;;;;;;6.26;100.00;162201.69;5032193;28;20044;-58
2022/04/15 01:56:43;;;;;;;32.83;22.13;;;;;;;6.21;100.00;162189.59;5032466;28;20400;-58
2022/04/15 01:59:09;;;;;;;45.67;24.88;;;;;;;6.23;100.00;162194.94;5033696;28;20046;-58
2022/04/15 02:01:35;;;;;;;25.48;19.42;;;;;;;6.31;100.00;162216.50;5030903;28;20152;-58
2022/04/15 02:04:00;;;;;;;31.50;22.08;;;;;;;6.29;100.00;162211.09;5033881;28;20057;-58
2022/04/15 02:06:26;;;;;;;32.13;22.50;;;;;;;6.35;100.00;162227.28;5032262;28;20041;-58
2022/04/15 02:08:51;;;;;;;24.42;21.55;;;;;;;6.37;100.00;162230.00;5033340;28;20034;-58
2022/04/15 02:11:16;;;;;;;28.23;21.25;;;;;;;6.31;100.00;162216.50;5031591;28;20087;-58
2022/04/15 02:13:42;;;;;;;26.33;19.42;;;;;;;6.32;100.00;162219.19;5033576;28;20018;-58
2022/04/15 02:16:07;;;;;;;31.67;19.77;;;;;;;6.35;100.00;162225.91;5031745;28;20033;-58
2022/04/15 02:18:32;;;;;;;26.42;20.38;;;;;;;6.38;100.00;162232.63;5033127;28;20021;-58
2022/04/15 02:20:58;;;;;;;24.83;19.45;;;;;;;6.38;100.00;162232.63;5031806;28;20036;-58
2022/04/15 02:23:23;;;;;;;35.58;20.15;;;;;;;6.32;100.00;162217.88;5033141;28;20076;-58
2022/04/15 02:25:48;;;;;;;24.20;17.88;;;;;;;6.26;100.00;162201.69;5031968;28;20029;-57
2022/04/15 02:28:14;;;;;;;24.10;17.08;;;;;;;6.22;100.00;162192.25;5033534;28;20461;-56
2022/04/15 02:30:39;;;;;;;22.55;18.45;;;;;;;6.24;100.00;162197.66;5032553;28;20041;-58
2022/04/15 02:33:05;;;;;;;24.08;18.85;;;;;;;6.24;100.00;162197.66;5031715;28;20041;-58
2022/04/15 02:35:30;;;;;;;25.83;18.88;;;;;;;6.25;100.00;162200.34;5033148;28;20080;-58
2022/04/15 02:37:55;;;;;;;24.88;18.65;;;;;;;6.22;100.00;162192.25;5031059;28;20041;-58
2022/04/15 02:40:21;;;;;;;32.45;20.60;;;;;;;6.16;100.00;162177.50;5032715;28;20029;-58
2022/04/15 02:42:46;;;;;;;29.42;17.70;;;;;;;6.07;100.00;162153.25;5031610;28;20041;-58
2022/04/15 02:45:12;;;;;;;23.92;19.20;;;;;;;5.98;100.00;162130.34;5032880;28;20473;-58
2022/04/15 02:47:38;;;;;;;35.97;17.73;;;;;;;5.90;100.00;162108.81;5030918;28;20146;-58
2022/04/15 02:50:04;;;;;;;27.45;18.02;;;;;;;5.85;100.00;162095.31;5032278;28;20029;-58
2022/04/15 02:52:29;;;;;;;31.52;18.08;;;;;;;5.76;100.00;162071.13;5030819;28;20167;-58
2022/04/15 02:54:55;;;;;;;39.95;18.88;;;;;;;5.71;100.00;162060.34;5032683;28;20032;-59
2022/04/15 02:57:20;;;;;;;25.27;18.65;;;;;;;5.60;100.00;162030.75;5031191;28;20095;-59
2022/04/15 02:59:45;;;;;;;39.75;20.08;;;;;;;5.51;100.00;162006.53;5032042;28;20100;-58
2022/04/15 03:02:11;;;;;;;21.65;17.20;;;;;;;5.44;100.00;161987.69;5031093;28;20038;-58
2022/04/15 03:04:36;;;;;;;34.03;19.25;;;;;;;5.38;100.00;161974.25;5032740;28;20028;-58
2022/04/15 03:07:02;;;;;;;32.20;19.10;;;;;;;5.30;100.00;161952.72;5031331;28;20045;-58
2022/04/15 03:09:27;;;;;;;26.65;19.95;;;;;;;5.26;100.00;161941.94;5031560;28;20033;-58
2022/04/15 03:11:53;;;;;;;32.53;21.20;;;;;;;5.21;100.00;161928.50;5030957;28;20034;-58
2022/04/15 03:14:18;;;;;;;33.00;19.40;;;;;;;5.16;100.00;161916.41;5031388;28;20052;-58
2022/04/15 03:16:44;;;;;;;47.75;24.13;;;;;;;5.11;100.00;161901.59;5030370;28;20034;-58
2022/04/15 03:19:09;;;;;;;35.75;22.35;;;;;;;5.04;100.00;161885.47;5032583;28;20468;-59
2022/04/15 03:21:37;;;;;;;30.52;21.58;;;;;;;4.97;100.00;161865.31;5029878;28;20413;-59
2022/04/15 03:24:03;;;;;;;28.02;22.17;;;;;;;4.92;100.00;161853.19;5032092;28;20021;-59
2022/04/15 03:26:28;;;;;;;34.53;22.38;;;;;;;4.85;100.00;161835.69;5030570;28;20080;-59
2022/04/15 03:28:54;;;;;;;28.55;22.52;;;;;;;4.80;100.00;161820.94;5031921;28;20037;-59
2022/04/15 03:31:19;;;;;;;32.75;21.98;;;;;;;4.76;100.00;161812.84;5029505;28;20421;-59
2022/04/15 03:33:45;;;;;;;29.77;21.65;;;;;;;4.73;100.00;161803.44;5031959;28;20025;-59
2022/04/15 03:36:11;;;;;;;27.83;19.85;;;;;;;4.66;100.00;161784.63;5030709;28;20041;-59
2022/04/15 03:38:37;;;;;;;29.17;20.23;;;;;;;4.58;100.00;161764.44;5031568;28;20152;-59
2022/04/15 03:41:02;;;;;;;31.08;21.50;;;;;;;4.50;100.00;161742.97;5030273;28;20051;-60
2022/04/15 03:43:27;;;;;;;32.72;19.98;;;;;;;4.39;100.00;161716.06;5031341;28;20485;-59
2022/04/15 03:45:53;;;;;;;30.52;21.17;;;;;;;4.33;100.00;161699.94;5029961;28;20032;-59
2022/04/15 03:48:18;;;;;;;28.00;21.23;;;;;;;4.25;100.00;161678.41;5031754;28;20025;-58
2022/04/15 03:50:44;;;;;;;23.90;18.02;;;;;;;4.19;100.00;161662.31;5029623;28;20032;-57
2022/04/15 03:53:09;;;;;;;26.55;18.98;;;;;;;4.12;100.00;161644.81;5031292;28;20033;-58
2022/04/15 03:55:34;;;;;;;35.55;21.15;;;;;;;4.06;100.00;161630.00;5031332;28;20033;-58
2022/04/15 03:58:00;;;;;;;33.85;20.50;;;;;;;4.01;100.00;161616.59;5030196;28;20053;-57
2022/04/15 04:00:25;;;;;;;24.77;17.80;;;;;;;3.94;100.00;161597.78;5030412;28;20046;-57
2022/04/15 04:02:54;;;;;;;33.90;23.23;;;;;;;3.89;100.00;161584.34;5029840;28;20095;-57
2022/04/15 04:05:24;;;;;;;26.60;19.42;;;;;;;3.84;100.00;161570.88;5031588;28;20051;-57
2022/04/15 04:07:49;;;;;;;34.50;21.02;;;;;;;3.86;100.00;161576.25;5029393;28;20069;-57
2022/04/15 04:10:15;;;;;;;29.35;22.33;;;;;;;3.91;100.00;161589.75;5031041;28;20022;-57
2022/04/15 04:12:42;;;;;;;27.10;19.50;;;;;;;3.96;100.00;161603.16;5029792;28;20180;-56
2022/04/15 04:15:09;;;;;;;24.42;19.65;;;;;;;4.04;100.00;161624.66;5029930;28;20029;-56
2022/04/15 04:17:34;;;;;;;24.88;19.05;;;;;;;4.08;100.00;161634.06;5029699;28;20045;-56
2022/04/15 04:20:01;;;;;;;22.27;17.50;;;;;;;4.09;100.00;161638.09;5030746;28;20025;-54
2022/04/15 04:22:28;;;;;;;20.27;17.33;;;;;;;4.02;100.00;161617.97;5028617;28;20579;-57
2022/04/15 04:24:53;;;;;;;24.40;19.00;;;;;;;3.98;100.00;161608.53;5031019;28;20116;-57
2022/04/15 04:27:18;;;;;;;20.80;15.85;;;;;;;3.95;100.00;161601.78;5029731;28;20071;-57
2022/04/15 04:29:44;;;;;;;14.82;13.30;;;;;;;3.94;100.00;161597.78;5030769;28;20026;-57
2022/04/15 04:32:09;;;;;;;16.83;11.80;;;;;;;3.94;100.00;161597.78;5029814;28;20544;-57
2022/04/15 04:34:34;;;;;;;23.27;13.45;;;;;;;3.92;100.00;161592.38;5030900;28;20033;-57
2022/04/15 04:37:00;;;;;;;16.67;9.27;;;;;;;3.92;100.00;161592.38;5028815;28;20050;-57
2022/04/15 04:39:27;;;;;;;19.85;12.68;;;;;;;3.87;100.00;161580.28;5030277;28;20026;-57
2022/04/15 04:41:53;;;;;;;27.25;16.20;;;;;;;4.00;100.00;161613.88;5029586;28;20029;-57
2022/04/15 04:44:18;;;;;;;32.35;22.15;;;;;;;4.09;100.00;161638.09;5029944;28;20036;-57
2022/04/15 04:46:44;;;;;;;30.10;21.88;;;;;;;4.18;100.00;161659.59;5028934;28;20041;-57
2022/04/15 04:49:09;;;;;;;45.97;24.70;;;;;;;4.27;100.00;161683.81;5029355;28;20095;-57
2022/04/15 04:51:35;;;;;;;55.63;24.70;;;;;;;4.37;100.00;161710.66;5027691;28;20764;-57
2022/04/15 04:54:00;;;;;;;56.75;26.02;;;;;;;4.41;100.00;161721.44;5030797;28;20079;-57
2022/04/15 04:56:26;;;;;;;30.13;23.42;;;;;;;4.47;100.00;161734.88;5029365;28;20038;-57
2022/04/15 04:58:52;;;;;;;29.98;21.80;;;;;;;4.54;100.00;161753.69;5029443;28;20036;-57
2022/04/15 05:01:17;;;;;;;35.50;23.27;;;;;;;4.58;100.00;161764.44;5027997;28;20046;-58
2022/04/15 05:03:43;;;;;;;34.95;24.52;;;;;;;4.61;100.00;161772.50;5030238;28;20497;-57
2022/04/15 05:06:08;;;;;;;33.85;23.48;;;;;;;4.66;100.00;161785.94;5027574;28;20049;-57
2022/04/15 05:08:33;;;;;;;37.45;24.60;;;;;;;4.68;100.00;161791.34;5030136;28;20477;-57
2022/04/15 05:10:59;;;;;;;39.88;26.75;;;;;;;4.74;100.00;161807.47;5028350;28;20025;-57
2022/04/15 05:13:24;;;;;;;39.58;25.23;;;;;;;4.83;100.00;161828.97;5028695;28;20132;-57
2022/04/15 05:15:49;;;;;;;35.28;24.67;;;;;;;4.88;100.00;161842.41;5028036;28;20032;-57
2022/04/15 05:18:15;;;;;;;42.00;24.30;;;;;;;4.95;100.00;161861.28;5030415;28;20018;-57
2022/04/15 05:20:40;;;;;;;38.00;21.42;;;;;;;4.99;100.00;161872.03;5028749;28;20029;-57
2022/04/15 05:23:05;;;;;;;38.72;25.45;;;;;;;5.07;100.00;161893.53;5028485;28;20369;-57
2022/04/15 05:25:31;;;;;;;32.47;23.38;;;;;;;5.11;100.00;161902.97;5029574;28;20041;-57
2022/04/15 05:27:58;;;;;;;33.20;26.40;;;;;;;5.15;100.00;161913.69;5027036;28;20041;-57
2022/04/15 05:30:24;;;;;;;33.88;23.85;;;;;;;5.19;100.00;161923.13;5029032;28;20108;-57
2022/04/15 05:32:49;;;;;;;30.80;21.42;;;;;;;5.22;100.00;161931.19;5028598;28;20117;-57
2022/04/15 05:35:14;;;;;;;37.05;21.95;;;;;;;5.27;100.00;161943.31;5028590;28;20022;-57
2022/04/15 05:37:40;;;;;;;38.90;21.83;;;;;;;5.31;100.00;161954.06;5031685;28;20104;-57
2022/04/15 05:40:06;;;;;;;31.33;21.92;;;;;;;5.38;100.00;161974.25;5033518;28;20021;-57
2022/04/15 05:42:31;;;;;;;33.85;24.13;;;;;;;5.39;100.00;161976.97;5030221;28;20571;-57
2022/04/15 05:44:56;;;;;;;36.13;21.85;;;;;;;5.40;100.00;161978.28;5028004;28;20024;-57
2022/04/15 05:47:22;;;;;;;29.25;21.15;;;;;;;5.39;100.00;161976.97;5026231;28;20068;-57
2022/04/15 05:49:47;;;;;;;26.38;19.95;;;;;;;5.49;100.00;162001.13;5022883;28;20030;-57
2022/04/15 05:52:14;;;;;;;30.83;21.40;;;;;;;5.55;100.00;162017.28;5022222;28;20386;-56
2022/04/15 05:54:39;;;;;;;33.60;23.48;;;;;;;5.55;100.00;162017.28;5024421;28;20019;-57
2022/04/15 05:57:05;;;;;;;41.33;26.00;;;;;;;5.58;100.00;162025.38;5022623;28;20497;-57
2022/04/15 05:59:30;;;;;;;29.50;22.05;;;;;;;5.62;100.00;162034.78;5023453;28;20472;-57
2022/04/15 06:01:55;;;;;;;30.35;21.48;;;;;;;5.70;100.00;162057.63;5021661;28;20052;-57
2022/04/15 06:04:21;;;;;;;24.95;20.38;;;;;;;5.74;100.00;162065.72;5025912;28;20595;-57
2022/04/15 06:06:47;;;;;;;29.17;19.40;;;;;;;5.74;100.00;162067.06;5012386;28;20038;-57
2022/04/15 06:09:12;;;;;;;23.50;20.02;;;;;;;5.82;100.00;162087.25;5020561;28;20051;-57
2022/04/15 06:11:39;;;;;;;22.27;19.85;;;;;;;5.89;100.00;162106.09;5031592;28;20128;-57
2022/04/15 06:14:06;;;;;;;26.05;19.25;;;;;;;5.90;100.00;162108.81;5032810;28;20021;-57
2022/04/15 06:16:32;;;;;;;35.30;20.52;;;;;;;5.89;100.00;162106.09;5031128;28;20561;-58
2022/04/15 06:18:58;;;;;;;26.15;20.27;;;;;;;5.94;100.00;162119.53;5032155;28;20031;-57
2022/04/15 06:21:24;;;;;;;22.60;19.45;;;;;;;5.96;100.00;162124.94;5030674;28;20452;-54
2022/04/15 06:23:49;;;;;;;29.83;19.67;;;;;;;6.08;100.00;162154.56;5033179;28;20017;-55
2022/04/15 06:26:14;;;;;;;25.80;17.85;;;;;;;6.06;100.00;162149.22;5030457;28;20052;-55
2022/04/15 06:28:40;;;;;;;30.80;17.42;;;;;;;6.05;100.00;162146.53;5030221;28;20025;-63
2022/04/15 06:31:05;;;;;;;33.50;19.30;;;;;;;6.07;100.00;162153.25;5030909;28;20370;-55
2022/04/15 06:33:30;;;;;;;31.58;19.27;;;;;;;6.10;100.00;162161.34;5032139;28;20032;-55
2022/04/15 06:35:56;;;;;;;23.30;16.92;;;;;;;6.11;100.00;162162.66;5030603;28;20033;-55
2022/04/15 06:38:21;;;;;;;25.90;17.27;;;;;;;6.12;100.00;162166.69;5032002;28;20033;-54
2022/04/15 06:40:46;;;;;;;21.60;17.90;;;;;;;6.16;100.00;162176.13;5031264;28;20028;-55
2022/04/15 06:43:14;;;;;;;24.25;15.93;;;;;;;6.20;100.00;162186.91;5032517;28;20025;-55
2022/04/15 06:45:39;;;;;;;23.98;16.77;;;;;;;6.18;100.00;162181.50;5032310;28;20053;-55
2022/04/15 06:48:05;;;;;;;25.50;17.58;;;;;;;6.28;100.00;162208.44;5029744;28;20034;-55
2022/04/15 06:50:31;;;;;;;24.40;18.83;;;;;;;6.32;100.00;162219.19;5032243;28;20033;-55
2022/04/15 06:52:56;;;;;;;21.63;16.98;;;;;;;6.39;100.00;162236.72;5030777;28;20037;-55
2022/04/15 06:55:22;;;;;;;20.33;16.20;;;;;;;6.29;100.00;162211.09;5031809;28;20033;-55
2022/04/15 06:57:47;;;;;;;20.70;15.77;;;;;;;6.37;100.00;162231.31;5029227;28;20493;-55
2022/04/15 07:00:13;;;;;;;26.55;15.45;;;;;;;6.42;100.00;162243.44;5031919;28;20041;-55
2022/04/15 07:02:39;;;;;;;22.63;15.27;;;;;;;6.45;100.00;162251.47;5030745;28;20158;-55
2022/04/15 07:05:09;;;;;;;28.30;17.65;;;;;;;6.51;100.00;162267.69;5031996;28;20022;-55
2022/04/15 07:07:39;;;;;;;43.50;19.08;;;;;;;6.64;100.00;162302.69;5030629;28;20041;-54
2022/04/15 07:10:08;;;;;;;18.42;15.23;;;;;;;6.69;100.00;162314.81;5031844;28;20059;-55
2022/04/15 07:12:34;;;;;;;16.90;14.93;;;;;;;6.72;100.00;162321.53;5029901;28;20038;-54
2022/04/15 07:15:01;;;;;;;20.77;15.70;;;;;;;6.76;100.00;162332.28;5032271;28;20057;-55
2022/04/15 07:17:26;;;;;;;17.80;14.30;;;;;;;6.81;100.00;162345.78;5030188;28;20042;-55
2022/04/15 07:19:51;;;;;;;26.95;15.32;;;;;;;6.89;100.00;162367.28;5030850;28;20575;-55
2022/04/15 07:22:18;;;;;;;32.22;17.23;;;;;;;6.88;100.00;162363.25;5030342;28;20034;-55
2022/04/15 07:24:44;;;;;;;19.77;15.55;;;;;;;6.98;100.00;162390.19;5032230;28;20030;-55
2022/04/15 07:27:09;;;;;;;23.38;15.20;;;;;;;7.03;100.00;162402.31;5030341;28;20136;-55
2022/04/15 07:29:34;;;;;;;15.98;13.63;;;;;;;7.08;100.00;162415.78;5025809;28;20445;-55
2022/04/15 07:32:00;;;;;;;16.20;13.20;;;;;;;7.13;100.00;162429.22;5025112;28;20081;-55
2022/04/15 07:34:26;;;;;;;19.33;14.38;;;;;;;7.17;100.00;162440.03;5031247;28;20021;-54
2022/04/15 07:36:55;;;;;;;13.57;12.00;;;;;;;7.20;100.00;162446.75;5029929;28;20045;-54
2022/04/15 07:39:21;;;;;;;22.88;14.95;;;;;;;7.21;100.00;162450.78;5031109;28;20033;-55
2022/04/15 07:41:47;;;;;;;18.95;12.80;;;;;;;7.27;100.00;162466.94;5029381;28;20037;-55
2022/04/15 07:44:14;;;;;;;23.55;14.35;;;;;;;7.44;100.00;162510.06;5030995;28;20044;-55
2022/04/15 07:46:41;;;;;;;13.13;10.85;;;;;;;7.51;100.00;162527.59;5029556;28;20057;-55
2022/04/15 07:49:07;;;;;;;17.67;13.18;;;;;;;7.58;100.00;162547.75;5030208;28;20049;-55
2022/04/15 07:51:33;;;;;;;12.65;10.77;;;;;;;7.66;100.00;162566.63;5028924;28;20045;-55
2022/04/15 07:53:59;;;;;;;14.80;10.77;;;;;;;7.62;100.00;162558.56;5031073;28;20040;-55
2022/04/15 07:56:24;;;;;;;17.88;11.40;;;;;;;7.68;100.00;162572.03;5029580;28;20042;-55
2022/04/15 07:58:52;;;;;;;22.40;12.10;;;;;;;7.69;100.00;162574.72;5029746;28;20055;-55
2022/04/15 08:01:19;;;;;;;12.10;10.80;;;;;;;7.73;100.00;162585.47;5022533;28;20072;-55
2022/04/15 08:03:44;;;;;;;18.90;13.00;;;;;;;7.76;100.00;162593.59;5020526;28;20064;-56
2022/04/15 08:06:10;;;;;;;19.85;11.50;;;;;;;7.81;100.00;162607.06;5024273;28;20042;-55
2022/04/15 08:08:35;;;;;;;16.85;12.15;;;;;;;7.87;100.00;162621.88;5030551;28;20029;-56
2022/04/15 08:11:01;;;;;;;13.55;10.18;;;;;;;7.85;100.00;162617.84;5028691;28;20049;-55
2022/04/15 08:13:27;;;;;;;15.07;10.82;;;;;;;7.81;100.00;162607.06;5026012;28;20025;-55
2022/04/15 08:15:53;;;;;;;17.83;11.70;;;;;;;7.66;100.00;162566.63;5027208;28;20051;-55
2022/04/15 08:18:22;;;;;;;18.30;11.38;;;;;;;7.72;100.00;162582.78;5032101;28;20369;-56
2022/04/15 08:20:50;;;;;;;18.60;12.23;;;;;;;7.75;100.00;162590.88;5025873;28;20029;-56
2022/04/15 08:23:18;;;;;;;17.57;11.93;;;;;;;7.67;100.00;162570.66;5026673;28;20071;-56
2022/04/15 08:25:44;;;;;;;19.73;13.32;;;;;;;7.73;100.00;162585.47;5027244;28;20467;-55
2022/04/15 08:28:10;;;;;;;18.45;12.00;;;;;;;7.72;100.00;162582.78;5031088;28;20075;-56
2022/04/15 08:30:37;;;;;;;13.50;11.90;;;;;;;7.78;100.00;162599.00;5029410;28;20091;-55
2022/04/15 08:33:05;;;;;;;14.90;12.52;;;;;;;7.76;100.00;162593.59;5027163;28;20099;-55
2022/04/15 08:35:31;;;;;;;22.70;12.70;;;;;;;7.81;100.00;162607.06;5028122;28;20148;-55
2022/04/15 08:37:56;;;;;;;22.80;12.35;;;;;;;7.77;100.00;162597.63;5027684;28;20053;-55
2022/04/15 08:40:22;;;;;;;19.05;13.45;;;;;;;7.83;100.00;162611.06;5029131;28;20030;-55
2022/04/15 08:42:47;;;;;;;14.90;11.43;;;;;;;7.86;100.00;162619.19;5027927;28;20615;-55
2022/04/15 08:45:13;;;;;;;15.98;12.38;;;;;;;7.76;100.00;162593.59;5029487;28;20033;-55
2022/04/15 08:47:39;;;;;;;22.13;13.15;;;;;;;7.77;100.00;162597.63;5028238;28;20713;-55
2022/04/15 08:50:06;;;;;;;18.25;14.38;;;;;;;7.84;100.00;162615.16;5030167;28;20062;-55
2022/04/15 08:52:33;;;;;;;15.77;13.00;;;;;;;7.78;100.00;162599.00;5028401;28;20505;-55
2022/04/15 08:55:01;;;;;;;18.13;11.95;;;;;;;7.73;100.00;162586.88;5030449;28;20065;-55
2022/04/15 08:57:27;;;;;;;20.25;13.70;;;;;;;7.72;100.00;162584.16;5028904;28;20116;-55
2022/04/15 08:59:53;;;;;;;14.35;12.15;;;;;;;7.73;100.00;162586.88;5030574;28;20036;-55
2022/04/15 09:02:32;;;;;;;14.70;13.15;;;;;;;7.71;100.00;162580.09;5028897;28;20136;-55
2022/04/15 09:04:58;;;;;;;16.80;12.70;;;;;;;7.82;100.00;162609.75;5030579;28;20068;-55
2022/04/15 09:07:28;;;;;;;16.58;14.82;;;;;;;7.84;100.00;162615.16;5028093;28;20073;-55
2022/04/15 09:09:56;;;;;;;16.42;14.70;;;;;;;7.84;100.00;162615.16;5030455;28;20092;-55
2022/04/15 09:12:26;;;;;;;18.05;14.48;;;;;;;7.84;100.00;162615.16;5031369;28;20125;-55
2022/04/15 09:14:54;;;;;;;13.45;11.95;;;;;;;7.84;100.00;162615.16;5033185;28;20112;-55
2022/04/15 09:17:23;;;;;;;17.05;14.13;;;;;;;7.87;100.00;162623.22;5031094;28;20041;-55
2022/04/15 09:19:51;;;;;;;18.52;13.05;;;;;;;7.76;100.00;162593.59;5034350;28;20079;-55
2022/04/15 09:22:17;;;;;;;15.20;13.48;;;;;;;7.72;100.00;162582.78;5032089;28;20037;-55
2022/04/15 09:24:44;;;;;;;17.92;14.05;;;;;;;7.72;100.00;162582.78;5033997;28;20049;-55
2022/04/15 09:27:09;;;;;;;14.98;12.77;;;;;;;7.78;100.00;162599.00;5032643;28;20400;-55
2022/04/15 09:29:36;;;;;;;16.25;14.57;;;;;;;7.83;100.00;162611.06;5034154;28;20022;-55
2022/04/15 09:32:14;;;;;;;15.60;13.50;;;;;;;7.86;100.00;162620.50;5032413;28;20041;-55
2022/04/15 09:34:55;;;;;;;16.95;15.05;;;;;;;7.91;100.00;162634.00;5033469;28;20040;-55
2022/04/15 09:37:22;;;;;;;15.15;13.52;;;;;;;7.86;100.00;162619.19;5032379;28;20043;-55
2022/04/15 09:40:12;;;;;;;14.48;12.75;;;;;;;7.94;100.00;162642.06;5033001;28;20027;-55
2022/04/15 09:42:46;;;;;;;17.92;13.02;;;;;;;8.11;100.00;162685.19;5031868;28;20073;-55
2022/04/15 09:45:21;;;;;;;18.73;14.02;;;;;;;8.29;100.00;162731.03;5026606;28;20026;-55
2022/04/15 09:48:05;;;;;;;19.98;13.30;;;;;;;8.42;100.00;162766.09;5022369;28;20038;-55
2022/04/15 09:50:37;;;;;;;18.55;14.15;;;;;;;8.48;100.00;162782.28;5033414;28;20076;-55
2022/04/15 09:53:19;;;;;;;14.35;10.88;;;;;;;8.53;100.00;162795.75;5032084;28;20049;-55
2022/04/15 09:55:47;;;;;;;13.25;11.90;;;;;;;8.62;100.00;162818.72;5033126;28;20037;-54
2022/04/15 09:58:21;;;;;;;14.95;10.65;;;;;;;8.64;100.00;162822.75;5032367;28;20042;-57
2022/04/15 10:00:51;;;;;;;15.98;10.65;;;;;;;8.72;100.00;162844.31;5031282;28;20050;-55
2022/04/15 10:03:24;;;;;;;12.65;9.80;;;;;;;8.75;100.00;162852.38;5031696;28;20133;-55
2022/04/15 10:05:52;;;;;;;10.27;8.60;;;;;;;8.81;100.00;162867.22;5032138;28;20091;-54
2022/04/15 10:08:20;;;;;;;13.40;10.15;;;;;;;8.97;100.00;162909.06;5033544;28;20029;-55
2022/04/15 10:10:46;;;;;;;10.93;9.82;;;;;;;9.26;100.00;162985.91;5033056;28;20018;-55
2022/04/15 10:13:14;;;;;;;10.40;9.32;;;;;;;9.20;100.00;162971.03;5032162;28;20041;-55
2022/04/15 10:15:40;;;;;;;19.17;8.52;;;;;;;9.17;100.00;162962.97;5033389;28;20021;-55
2022/04/15 10:18:06;;;;;;;14.55;10.45;;;;;;;9.36;100.00;163011.50;5031733;28;20037;-55
2022/04/15 10:20:33;;;;;;;10.75;9.63;;;;;;;9.20;100.00;162971.03;5032884;28;20084;-56
2022/04/15 10:23:04;;;;;;;8.93;7.55;;;;;;;9.27;100.00;162987.28;5032010;28;20033;-55
2022/04/15 10:25:30;;;;;;;12.85;9.60;;;;;;;9.33;100.00;163003.44;5032869;28;20033;-55
2022/04/15 10:28:07;;;;;;;10.93;8.70;;;;;;;9.47;100.00;163041.22;5031802;28;20044;-55
2022/04/15 10:30:32;;;;;;;9.00;7.57;;;;;;;9.59;100.00;163070.84;5033364;28;20026;-55
2022/04/15 10:32:57;;;;;;;13.10;7.82;;;;;;;9.63;100.00;163081.69;5031018;28;20059;-55
2022/04/15 10:35:27;;;;;;;8.30;7.53;;;;;;;9.60;100.00;163074.94;5032727;28;20049;-55
2022/04/15 10:37:58;;;;;;;9.35;8.35;;;;;;;9.80;100.00;163126.19;5031346;28;20037;-55
2022/04/15 10:40:26;;;;;;;10.68;9.30;;;;;;;9.56;100.00;163062.78;5032991;28;20034;-55
2022/04/15 10:42:51;;;;;;;12.88;9.60;;;;;;;9.50;100.00;163049.28;5031258;28;20087;-55
2022/04/15 10:45:34;;;;;;;12.98;9.48;;;;;;;9.63;100.00;163081.69;5032962;28;20384;-55
2022/04/15 10:48:01;;;;;;;9.45;8.65;;;;;;;9.87;100.00;163145.06;5031073;28;20068;-55
2022/04/15 10:50:32;;;;;;;8.02;7.30;;;;;;;9.99;100.00;163176.09;5032593;28;20032;-55
2022/04/15 10:53:17;;;;;;;9.20;8.40;;;;;;;9.99;100.00;163177.44;5017036;28;20046;-55
2022/04/15 10:55:45;;;;;;;10.80;9.38;;;;;;;10.15;100.00;163219.28;5030538;28;20029;-55
2022/04/15 10:58:12;;;;;;;7.70;6.93;;;;;;;10.36;100.00;163273.25;5031229;28;20056;-55
2022/04/15 11:03:25;;;;;;;8.68;7.88;;;;;;;9.95;100.00;163166.66;5030355;28;20095;-55
2022/04/15 11:05:54;;;;;;;8.40;6.85;;;;;;;9.99;100.00;163176.09;5031460;28;20029;-55
2022/04/15 11:08:21;;;;;;;7.65;7.05;;;;;;;9.88;100.00;163146.41;5032367;28;20104;-55
2022/04/15 11:10:52;;;;;;;6.75;6.22;;;;;;;9.99;100.00;163176.09;5032656;28;20088;-55
2022/04/15 11:13:27;;;;;;;7.53;6.82;;;;;;;9.92;100.00;163158.53;5012326;28;20133;-55